Time;durP1;ratioP1;P1;durP2;ratioP2;P2;SDS_P1;SDS_P2;PMS_P1;PMS_P2;Temp;Humidity;BMP_temperature;BMP_pressure;BME280_temperature;BME280_humidity;BME280_pressure;Samples;Min_cycle;Max_cycle;Signal;HPM_P1;HPM_P2
2024/01/10 18:11:33;;;;;;;467.52;190.10;;;-7.00;99.90;;;;;;5058666;27;20446;-57
2024/01/10 18:13:59;;;;;;;472.33;194.38;;;-7.30;99.90;;;;;;5059436;28;20119;-57
2024/01/10 18:16:25;;;;;;;452.92;184.52;;;-7.30;99.90;;;;;;5058637;28;20424;-59
2024/01/10 18:18:50;;;;;;;468.27;195.17;;;-7.50;99.90;;;;;;5052606;28;20023;-57
2024/01/10 18:21:20;;;;;;;377.23;153.20;;;-7.70;99.90;;;;;;5057903;28;20031;-58
2024/01/10 18:23:46;;;;;;;487.38;204.15;;;-7.70;99.90;;;;;;5057306;28;20029;-56
2024/01/10 18:26:12;;;;;;;497.57;204.67;;;-7.70;99.90;;;;;;5058284;28;20051;-57
2024/01/10 18:28:37;;;;;;;514.20;215.97;;;-7.80;99.90;;;;;;5050818;28;20066;-57
2024/01/10 18:31:03;;;;;;;505.17;220.73;;;-7.90;99.90;;;;;;5058381;28;22694;-58
2024/01/10 18:33:29;;;;;;;511.52;222.55;;;-7.80;99.90;;;;;;5059139;28;20028;-57
2024/01/10 18:35:55;;;;;;;537.23;234.27;;;-7.80;99.90;;;;;;5059334;28;20047;-58
2024/01/10 18:38:20;;;;;;;537.93;232.40;;;-7.80;99.90;;;;;;5050532;28;20661;-59
2024/01/10 18:40:47;;;;;;;533.47;234.03;;;-7.90;99.90;;;;;;5058503;28;20483;-55
2024/01/10 18:43:13;;;;;;;542.75;237.60;;;-7.80;99.90;;;;;;5059512;28;20044;-58
2024/01/10 18:45:39;;;;;;;528.97;232.30;;;-7.90;99.90;;;;;;5058976;28;20064;-56
2024/01/10 18:48:05;;;;;;;501.17;223.20;;;-7.90;99.90;;;;;;5051462;28;20115;-57
2024/01/10 18:50:31;;;;;;;524.70;220.97;;;-8.00;99.90;;;;;;5055710;28;20051;-56
2024/01/10 18:52:58;;;;;;;502.57;217.40;;;-8.00;99.90;;;;;;5057710;28;20840;-58
2024/01/10 18:55:24;;;;;;;502.52;225.95;;;-8.10;99.90;;;;;;5058055;28;20047;-57
2024/01/10 18:57:52;;;;;;;506.70;224.73;;;-8.10;99.90;;;;;;5055132;28;20028;-56
2024/01/10 19:00:22;;;;;;;493.25;214.82;;;-8.20;99.90;;;;;;5052924;28;20137;-60
2024/01/10 19:02:49;;;;;;;463.77;203.60;;;-8.20;99.90;;;;;;5058890;28;20028;-55
2024/01/10 19:05:16;;;;;;;;;;;-8.20;99.90;;;;;;5060917;28;20028;-55
2024/01/10 19:07:42;;;;;;;480.17;198.32;;;-8.20;99.90;;;;;;5055978;28;19952;-55
2024/01/10 19:10:08;;;;;;;484.27;205.13;;;-8.10;99.90;;;;;;5047741;28;20477;-56
2024/01/10 19:12:34;;;;;;;467.77;203.25;;;-8.30;99.90;;;;;;5055912;28;20180;-59
2024/01/10 19:15:00;;;;;;;475.13;206.50;;;-8.30;99.90;;;;;;5058263;28;20144;-56
2024/01/10 19:17:25;;;;;;;492.10;211.23;;;-8.40;99.90;;;;;;5057234;28;20222;-56
2024/01/10 19:19:51;;;;;;;483.40;218.80;;;-8.40;99.90;;;;;;5045518;28;20308;-56
2024/01/10 19:22:17;;;;;;;490.33;220.05;;;-8.40;99.90;;;;;;5046267;28;20748;-56
2024/01/10 19:24:44;;;;;;;503.33;232.57;;;-8.40;99.90;;;;;;5042412;28;20040;-55
2024/01/10 19:27:12;;;;;;;524.40;241.98;;;-8.50;99.90;;;;;;5040579;28;20128;-56
2024/01/10 19:29:38;;;;;;;532.95;239.35;;;-8.50;99.90;;;;;;5033575;28;20033;-55
2024/01/10 19:32:05;;;;;;;538.33;249.48;;;-8.50;99.90;;;;;;5042863;28;20028;-57
2024/01/10 19:34:30;;;;;;;556.90;262.27;;;-8.40;99.90;;;;;;5043043;28;20044;-58
2024/01/10 19:36:56;;;;;;;453.80;212.10;;;-8.50;99.90;;;;;;5042913;28;20028;-57
2024/01/10 19:39:22;;;;;;;600.17;282.97;;;-8.40;99.90;;;;;;5033276;28;20277;-58
2024/01/10 19:41:48;;;;;;;605.22;282.73;;;-8.50;99.90;;;;;;5042174;28;20039;-56
2024/01/10 19:44:15;;;;;;;637.65;294.92;;;-8.50;99.90;;;;;;5043642;28;20029;-59
2024/01/10 19:46:42;;;;;;;647.08;301.67;;;-8.40;99.90;;;;;;5042595;28;20028;-59
2024/01/10 19:49:08;;;;;;;650.45;312.80;;;-8.50;99.90;;;;;;5033584;28;20039;-56
2024/01/10 19:51:34;;;;;;;628.60;300.67;;;-8.50;99.90;;;;;;5042747;28;20028;-58
2024/01/10 19:53:59;;;;;;;606.70;296.03;;;-8.50;99.90;;;;;;5043524;28;20093;-57
2024/01/10 19:56:29;;;;;;;619.97;285.20;;;-8.50;99.90;;;;;;5042857;28;20252;-59
2024/01/10 19:58:55;;;;;;;577.30;269.42;;;-8.70;99.90;;;;;;5034775;28;20619;-57
2024/01/10 20:01:21;;;;;;;550.67;252.17;;;-8.80;99.90;;;;;;5042415;28;20036;-54
2024/01/10 20:03:46;;;;;;;592.60;280.77;;;-8.80;99.90;;;;;;5045379;28;20423;-57
2024/01/10 20:06:12;;;;;;;633.23;293.60;;;-8.80;99.90;;;;;;5042641;28;20388;-55
2024/01/10 20:08:37;;;;;;;610.97;282.37;;;-8.80;99.90;;;;;;5041248;28;20094;-56
2024/01/10 20:11:03;;;;;;;612.13;284.10;;;-8.90;99.90;;;;;;5043119;28;20906;-58
2024/01/10 20:13:29;;;;;;;606.33;284.87;;;-8.80;99.90;;;;;;5043909;28;20113;-56
2024/01/10 20:15:55;;;;;;;615.97;288.83;;;-8.80;99.90;;;;;;5042857;28;20050;-55
2024/01/10 20:18:20;;;;;;;617.47;292.90;;;-8.70;99.90;;;;;;5038359;28;20047;-56
2024/01/10 20:20:46;;;;;;;641.30;305.00;;;-8.70;99.90;;;;;;5041714;28;20024;-54
2024/01/10 20:23:12;;;;;;;654.30;310.47;;;-8.70;99.90;;;;;;5042963;28;20029;-57
2024/01/10 20:25:38;;;;;;;617.47;295.23;;;-8.80;99.90;;;;;;5042168;28;20864;-54
2024/01/10 20:28:04;;;;;;;645.35;303.25;;;-8.80;99.90;;;;;;5037750;28;20132;-57
2024/01/10 20:30:30;;;;;;;603.75;285.42;;;-9.00;99.90;;;;;;5042323;28;20033;-56
2024/01/10 20:32:57;;;;;;;594.30;271.70;;;-9.00;99.90;;;;;;5041385;28;20086;-56
2024/01/10 20:35:23;;;;;;;557.90;266.17;;;-9.10;99.90;;;;;;5043006;28;20176;-54
2024/01/10 20:37:49;;;;;;;559.00;258.92;;;-9.20;99.90;;;;;;5039900;28;20510;-57
2024/01/10 20:40:15;;;;;;;574.30;265.23;;;-9.30;99.90;;;;;;5041032;28;20128;-57
2024/01/10 20:42:41;;;;;;;555.22;260.08;;;-9.40;99.90;;;;;;5041326;28;20032;-58
2024/01/10 20:45:06;;;;;;;570.30;255.53;;;-9.50;99.90;;;;;;5042662;28;20121;-57
2024/01/10 20:47:33;;;;;;;548.35;252.75;;;-9.40;99.90;;;;;;5041806;28;20029;-57
2024/01/10 20:50:00;;;;;;;;;;;-9.40;99.90;;;;;;5035817;28;20046;-57
2024/01/10 20:52:26;;;;;;;527.13;232.88;;;-9.30;99.90;;;;;;5041110;28;19912;-58
2024/01/10 20:54:52;;;;;;;537.97;245.30;;;-9.20;99.90;;;;;;5040839;28;20582;-57
2024/01/10 20:57:21;;;;;;;544.75;251.80;;;-9.20;99.90;;;;;;5041219;28;20676;-55
2024/01/10 20:59:48;;;;;;;548.80;248.13;;;-9.20;99.90;;;;;;5037025;28;20032;-59
2024/01/10 21:02:14;;;;;;;532.75;244.85;;;-9.20;99.90;;;;;;5040752;28;20380;-56
2024/01/10 21:04:40;;;;;;;534.35;243.45;;;-9.20;99.90;;;;;;5041615;28;20944;-56
2024/01/10 21:07:07;;;;;;;534.00;243.57;;;-9.20;99.90;;;;;;5041083;28;20279;-58
2024/01/10 21:09:33;;;;;;;;;;;-9.20;99.90;;;;;;5037492;28;20354;-57
2024/01/10 21:11:58;;;;;;;528.92;237.05;;;-9.20;99.90;;;;;;5038696;28;19924;-57
2024/01/10 21:14:24;;;;;;;544.17;243.43;;;-9.20;99.90;;;;;;5041547;28;20101;-57
2024/01/10 21:16:50;;;;;;;574.80;260.37;;;-9.30;99.90;;;;;;5041043;28;20085;-56
2024/01/10 21:19:18;;;;;;;554.50;259.00;;;-9.30;99.90;;;;;;5037118;28;20109;-57
2024/01/10 21:21:47;;;;;;;620.40;265.75;;;-9.30;99.90;;;;;;5038160;28;20044;-58
2024/01/10 21:24:16;;;;;;;624.80;274.73;;;-9.40;99.90;;;;;;5040057;28;20026;-58
2024/01/10 21:26:43;;;;;;;595.65;270.90;;;-9.50;99.90;;;;;;5040146;28;20029;-56
2024/01/10 21:29:09;;;;;;;644.80;286.73;;;-9.60;99.90;;;;;;5037170;28;20032;-59
2024/01/10 21:31:37;;;;;;;635.13;278.85;;;-9.70;99.90;;;;;;5040592;28;20035;-55
2024/01/10 21:34:03;;;;;;;617.40;276.25;;;-9.80;99.90;;;;;;5038666;28;20490;-56
2024/01/10 21:36:35;;;;;;;625.10;271.42;;;-9.70;99.90;;;;;;5040618;28;20140;-56
2024/01/10 21:39:04;;;;;;;611.78;266.23;;;-9.60;99.90;;;;;;5036601;28;20040;-55
2024/01/10 21:41:31;;;;;;;593.63;263.15;;;-9.60;99.90;;;;;;5039850;28;20527;-56
2024/01/10 21:43:58;;;;;;;569.75;248.55;;;-9.60;99.90;;;;;;5038511;28;21407;-57
2024/01/10 21:46:26;;;;;;;578.65;248.15;;;-9.70;99.90;;;;;;5040339;28;20064;-59
2024/01/10 21:48:52;;;;;;;560.63;245.30;;;-9.70;99.90;;;;;;5037279;28;20769;-58
2024/01/10 21:51:18;;;;;;;;;;;-9.60;99.90;;;;;;5041071;28;21381;-57
2024/01/10 21:53:46;;;;;;;589.20;255.88;;;-9.60;99.90;;;;;;5040680;28;19912;-59
2024/01/10 21:56:13;;;;;;;633.22;276.45;;;-9.50;99.90;;;;;;5040315;28;20036;-57
2024/01/10 21:58:39;;;;;;;702.25;310.17;;;-9.80;99.90;;;;;;5036820;28;20024;-56
2024/01/10 22:01:08;;;;;;;705.72;307.38;;;-10.00;99.90;;;;;;5039822;28;20550;-58
2024/01/10 22:03:34;;;;;;;749.05;324.60;;;-10.00;99.90;;;;;;5041222;28;20035;-57
2024/01/10 22:06:01;;;;;;;722.95;321.80;;;-9.90;99.90;;;;;;5040384;28;20032;-58
2024/01/10 22:08:27;;;;;;;705.80;314.98;;;-9.80;99.90;;;;;;5036671;28;20055;-57
2024/01/10 22:10:53;;;;;;;704.55;315.75;;;-9.80;99.90;;;;;;5040400;28;20063;-57
2024/01/10 22:13:18;;;;;;;533.00;237.87;;;-9.90;99.90;;;;;;5039774;28;20037;-54
2024/01/10 22:15:44;;;;;;;641.27;294.07;;;-9.90;99.90;;;;;;5040024;28;20024;-56
2024/01/10 22:18:11;;;;;;;657.57;288.80;;;-10.00;99.90;;;;;;5035826;28;20093;-59
2024/01/10 22:20:37;;;;;;;640.42;284.50;;;-10.10;99.90;;;;;;5039551;28;20028;-56
2024/01/10 22:23:03;;;;;;;636.43;282.80;;;-10.10;99.90;;;;;;5038460;28;22711;-55
2024/01/10 22:25:28;;;;;;;622.13;282.38;;;-10.00;99.90;;;;;;5040040;28;20035;-55
2024/01/10 22:27:54;;;;;;;603.13;269.97;;;-9.80;99.90;;;;;;5034824;28;20909;-57
2024/01/10 22:30:20;;;;;;;616.97;278.27;;;-9.70;99.90;;;;;;5038086;28;20306;-58
2024/01/10 22:32:46;;;;;;;612.35;273.38;;;-9.60;99.90;;;;;;5038775;28;20392;-57
2024/01/10 22:35:11;;;;;;;611.10;275.17;;;-9.60;99.90;;;;;;5039338;28;20043;-58
2024/01/10 22:37:37;;;;;;;657.97;287.50;;;-9.50;99.90;;;;;;5037340;28;20664;-59
2024/01/10 22:40:04;;;;;;;641.57;276.97;;;-9.60;99.90;;;;;;5037268;28;20112;-54
2024/01/10 22:42:29;;;;;;;613.03;273.23;;;-9.60;99.90;;;;;;5037373;28;20468;-55
2024/01/10 22:44:57;;;;;;;591.23;267.10;;;-9.60;99.90;;;;;;5036825;28;20042;-55
2024/01/10 22:47:22;;;;;;;597.95;266.90;;;-9.50;99.90;;;;;;5037003;28;20044;-55
2024/01/10 22:49:48;;;;;;;589.30;268.73;;;-9.50;99.90;;;;;;5035230;28;20231;-58
2024/01/10 22:52:14;;;;;;;576.80;258.83;;;-9.50;99.90;;;;;;5039485;28;20293;-55
2024/01/10 22:54:41;;;;;;;555.83;253.60;;;-9.60;99.90;;;;;;5039808;28;20037;-56
2024/01/10 22:57:07;;;;;;;575.10;253.38;;;-9.70;99.90;;;;;;5041539;28;20036;-54
2024/01/10 22:59:32;;;;;;;561.57;251.87;;;-9.60;99.90;;;;;;5040116;28;20035;-57
2024/01/10 23:01:58;;;;;;;555.43;240.07;;;-9.70;99.90;;;;;;5043200;28;20038;-57
2024/01/10 23:04:23;;;;;;;548.07;246.77;;;-9.70;99.90;;;;;;5043713;28;20029;-55
2024/01/10 23:06:49;;;;;;;548.20;241.83;;;-9.50;99.90;;;;;;5042874;28;20871;-55
2024/01/10 23:09:15;;;;;;;545.10;241.60;;;-9.60;99.90;;;;;;5039839;28;20063;-58
2024/01/10 23:11:42;;;;;;;419.40;189.70;;;-9.50;99.90;;;;;;5043049;28;20491;-55
2024/01/10 23:14:07;;;;;;;;;;;-9.50;99.90;;;;;;5044112;28;20539;-56
2024/01/10 23:16:33;;;;;;;545.83;239.65;;;-9.50;99.90;;;;;;5043518;28;19970;-56
2024/01/10 23:18:58;;;;;;;539.80;243.10;;;-9.50;99.90;;;;;;5040326;28;20035;-57
2024/01/10 23:21:24;;;;;;;561.37;253.13;;;-9.50;99.90;;;;;;5043265;28;20041;-57
2024/01/10 23:23:50;;;;;;;521.28;229.70;;;-9.70;99.90;;;;;;5043329;28;20036;-56
2024/01/10 23:26:19;;;;;;;526.35;235.55;;;-9.70;99.90;;;;;;5040940;28;20041;-55
2024/01/10 23:28:45;;;;;;;520.85;229.15;;;-9.60;99.90;;;;;;5039369;28;20432;-58
2024/01/10 23:31:18;;;;;;;523.92;230.32;;;-9.70;99.90;;;;;;5047154;28;20032;-56
2024/01/10 23:33:44;;;;;;;513.65;222.02;;;-9.70;99.90;;;;;;5047966;28;20029;-56
2024/01/10 23:36:11;;;;;;;515.65;231.35;;;-9.70;99.90;;;;;;5044300;28;20025;-56
2024/01/10 23:38:37;;;;;;;514.95;230.82;;;-9.70;99.90;;;;;;5044107;28;20045;-59
2024/01/10 23:41:03;;;;;;;549.05;244.52;;;-9.70;99.90;;;;;;5045025;28;20036;-57
2024/01/10 23:43:28;;;;;;;536.13;237.32;;;-9.90;99.90;;;;;;5045773;28;20567;-57
2024/01/10 23:45:55;;;;;;;515.67;224.60;;;-9.80;99.90;;;;;;5049227;28;20029;-55
2024/01/10 23:48:21;;;;;;;513.05;225.70;;;-9.90;99.90;;;;;;5047842;28;20106;-58
2024/01/10 23:50:47;;;;;;;503.25;218.63;;;-9.80;99.90;;;;;;5047715;28;20040;-55
2024/01/10 23:53:13;;;;;;;403.93;177.10;;;-9.90;99.90;;;;;;5044701;28;20029;-56
2024/01/10 23:55:39;;;;;;;503.20;221.77;;;-10.00;99.90;;;;;;5049097;28;20041;-55
2024/01/10 23:58:04;;;;;;;524.33;226.13;;;-10.10;99.90;;;;;;5048593;28;20032;-58
